createdAt,value
2018-07-02T00:00:19.832Z,79.55
2018-07-02T00:01:19.862Z,79.64
2018-07-02T00:02:19.858Z,79.64
2018-07-02T00:03:19.832Z,79.46
2018-07-02T00:04:19.840Z,79.55
2018-07-02T00:05:19.838Z,79.74
2018-07-02T00:06:19.834Z,79.36
2018-07-02T00:07:19.839Z,79.64
2018-07-02T00:08:19.890Z,80.22
2018-07-02T00:09:19.839Z,79.74
2018-07-02T00:10:19.838Z,79.55
2018-07-02T00:11:19.894Z,79.55
2018-07-02T00:12:19.800Z,79.83
2018-07-02T00:13:19.819Z,79.89
2018-07-02T00:14:19.822Z,79.70
2018-07-02T00:15:19.825Z,80.36
2018-07-02T00:16:19.837Z,80.55
2018-07-02T00:17:19.821Z,80.55
2018-07-02T00:18:19.841Z,81.13
2018-07-02T00:19:19.864Z,80.84
2018-07-02T00:20:19.818Z,80.84
2018-07-02T00:21:19.858Z,80.94
2018-07-02T00:22:19.824Z,80.94
2018-07-02T00:23:19.849Z,81.03
2018-07-02T00:24:19.806Z,80.94
2018-07-02T00:25:19.823Z,80.84
2018-07-02T00:26:19.818Z,81.70
2018-07-02T00:27:19.821Z,81.51
2018-07-02T00:28:19.807Z,81.70
2018-07-02T00:29:19.824Z,82.27
2018-07-02T00:30:19.838Z,82.08
2018-07-02T00:31:19.829Z,81.79
2018-07-02T00:32:19.833Z,81.98
2018-07-02T00:33:19.820Z,82.37
2018-07-02T00:34:19.806Z,81.98
2018-07-02T00:35:19.777Z,81.98
2018-07-02T00:36:19.823Z,81.98
2018-07-02T00:37:19.802Z,82.27
2018-07-02T00:38:19.803Z,81.03
2018-07-02T00:39:19.858Z,81.79
2018-07-02T00:40:19.794Z,81.70
2018-07-02T00:41:19.845Z,81.79
2018-07-02T00:42:19.834Z,80.84
2018-07-02T00:43:19.830Z,81.03
2018-07-02T00:44:19.803Z,80.94
2018-07-02T00:45:19.774Z,80.94
2018-07-02T00:46:19.822Z,80.94
2018-07-02T00:47:19.790Z,80.55
2018-07-02T00:48:19.803Z,81.32
2018-07-02T00:49:19.756Z,81.51
2018-07-02T00:50:19.788Z,81.51
2018-07-02T00:51:19.774Z,81.70
2018-07-02T00:52:19.772Z,81.60
2018-07-02T00:53:19.773Z,81.41
2018-07-02T00:54:19.763Z,81.32
2018-07-02T00:55:19.773Z,81.41
2018-07-02T00:56:19.775Z,81.51
2018-07-02T00:57:19.770Z,81.32
2018-07-02T00:58:19.743Z,81.76
2018-07-02T00:59:19.771Z,82.18
2018-07-02T01:00:19.753Z,82.32
2018-07-02T01:01:19.819Z,82.23
2018-07-02T01:02:19.737Z,82.32
2018-07-02T01:03:19.742Z,82.70
2018-07-02T01:04:19.753Z,82.42
2018-07-02T01:05:19.765Z,82.42
2018-07-02T01:06:19.766Z,82.32
2018-07-02T01:07:19.818Z,82.23
2018-07-02T01:08:19.790Z,82.70
2018-07-02T01:09:19.797Z,82.51
2018-07-02T01:10:19.779Z,82.51
2018-07-02T01:11:19.774Z,82.61
2018-07-02T01:12:19.751Z,82.61
2018-07-02T01:13:19.745Z,82.51
2018-07-02T01:14:19.765Z,82.42
2018-07-02T01:15:19.761Z,82.80
2018-07-02T01:16:19.752Z,82.80
2018-07-02T01:17:19.782Z,83.47
2018-07-02T01:18:19.731Z,83.37
2018-07-02T01:19:19.740Z,83.56
2018-07-02T01:20:19.739Z,83.65
2018-07-02T01:21:19.768Z,83.85
2018-07-02T01:22:19.878Z,84.13
2018-07-02T01:23:19.735Z,84.23
2018-07-02T01:24:19.791Z,84.23
2018-07-02T01:25:19.794Z,83.75
2018-07-02T01:26:19.729Z,83.75
2018-07-02T01:27:19.742Z,83.56
2018-07-02T01:28:19.728Z,83.47
2018-07-02T01:29:19.727Z,83.75
2018-07-02T01:30:19.715Z,83.94
2018-07-02T01:31:19.744Z,83.47
2018-07-02T01:32:19.723Z,83.56
2018-07-02T01:33:19.707Z,83.65
2018-07-02T01:34:19.743Z,84.61
2018-07-02T01:35:19.736Z,84.66
2018-07-02T01:36:19.726Z,84.66
2018-07-02T01:37:19.704Z,85.33
2018-07-02T01:38:19.712Z,84.76
2018-07-02T01:39:19.744Z,85.61
2018-07-02T01:40:19.803Z,85.33
2018-07-02T01:41:19.714Z,85.52
2018-07-02T01:42:19.721Z,85.24
2018-07-02T01:43:19.731Z,85.42
2018-07-02T01:44:19.717Z,85.14
2018-07-02T01:45:19.743Z,84.56
2018-07-02T01:46:19.709Z,84.56
2018-07-02T01:47:19.705Z,84.66
2018-07-02T01:48:19.683Z,84.66
2018-07-02T01:49:19.663Z,84.95
2018-07-02T01:50:19.744Z,84.95
2018-07-02T01:51:19.690Z,85.24
2018-07-02T01:52:19.685Z,85.33
2018-07-02T01:53:19.682Z,85.33
2018-07-02T01:54:19.681Z,85.24
2018-07-02T01:55:19.673Z,85.33
2018-07-02T01:56:19.722Z,85.42
2018-07-02T01:57:19.731Z,85.42
2018-07-02T01:58:19.740Z,85.14
2018-07-02T01:59:19.702Z,85.80
2018-07-02T02:00:19.657Z,85.90
2018-07-02T02:01:19.670Z,85.99
2018-07-02T02:02:19.638Z,85.71
2018-07-02T02:03:19.655Z,86.18
2018-07-02T02:04:19.668Z,86.47
2018-07-02T02:05:19.680Z,86.28
2018-07-02T02:06:19.657Z,86.28
2018-07-02T02:07:19.620Z,85.61
2018-07-02T02:08:19.657Z,85.71
2018-07-02T02:09:19.634Z,86.38
2018-07-02T02:10:19.675Z,85.24
2018-07-02T02:11:19.673Z,85.52
2018-07-02T02:12:19.794Z,85.71
2018-07-02T02:13:19.661Z,85.80
2018-07-02T02:14:19.655Z,85.61
2018-07-02T02:15:19.705Z,86.18
2018-07-02T02:16:19.625Z,86.38
2018-07-02T02:17:19.640Z,86.57
2018-07-02T02:18:19.704Z,86.94
2018-07-02T02:19:19.629Z,86.76
2018-07-02T02:20:19.684Z,87.04
2018-07-02T02:21:20.546Z,87.71
2018-07-02T02:22:19.625Z,87.71
2018-07-02T02:23:19.659Z,86.94
2018-07-02T02:24:19.679Z,87.04
2018-07-02T02:25:19.638Z,87.13
2018-07-02T02:26:19.603Z,86.94
2018-07-02T02:27:19.627Z,86.28
2018-07-02T02:28:19.650Z,86.09
2018-07-02T02:29:19.653Z,86.09
2018-07-02T02:30:19.616Z,86.38
2018-07-02T02:31:19.681Z,86.76
2018-07-02T02:32:19.598Z,86.66
2018-07-02T02:33:19.641Z,87.13
2018-07-02T02:34:19.586Z,87.04
2018-07-02T02:35:19.678Z,87.61
2018-07-02T02:36:19.600Z,87.90
2018-07-02T02:37:19.599Z,88.28
2018-07-02T02:38:19.640Z,87.85
2018-07-02T02:39:19.581Z,88.09
2018-07-02T02:40:19.620Z,87.99
2018-07-02T02:41:19.617Z,87.99
2018-07-02T02:42:19.582Z,87.99
2018-07-02T02:43:19.592Z,87.90
2018-07-02T02:44:19.650Z,87.71
2018-07-02T02:45:19.567Z,87.52
2018-07-02T02:46:19.601Z,88.46
2018-07-02T02:47:19.557Z,87.71
2018-07-02T02:48:19.590Z,87.23
2018-07-02T02:49:22.541Z,87.42
2018-07-02T02:50:19.586Z,87.71
2018-07-02T02:51:19.586Z,86.66
2018-07-02T02:52:19.617Z,86.94
2018-07-02T02:53:19.586Z,87.13
2018-07-02T02:54:19.605Z,87.13
2018-07-02T02:55:19.615Z,86.94
2018-07-02T02:56:19.576Z,87.23
2018-07-02T02:57:19.515Z,87.61
2018-07-02T02:58:19.603Z,87.52
2018-07-02T02:59:19.569Z,87.71
2018-07-02T03:00:19.560Z,88.23
2018-07-02T03:01:19.622Z,88.13
2018-07-02T03:02:20.545Z,88.61
2018-07-02T03:03:19.555Z,89.37
2018-07-02T03:04:19.550Z,88.42
2018-07-02T03:05:19.492Z,89.18
2018-07-02T03:06:19.507Z,89.28
2018-07-02T03:07:19.557Z,89.37
2018-07-02T03:08:19.492Z,89.00
2018-07-02T03:09:19.531Z,89.14
2018-07-02T03:10:19.511Z,88.66
2018-07-02T03:11:19.522Z,88.66
2018-07-02T03:12:19.518Z,88.18
2018-07-02T03:13:19.565Z,88.28
2018-07-02T03:14:19.601Z,88.66
2018-07-02T03:15:19.527Z,88.42
2018-07-02T03:16:19.504Z,88.13
2018-07-02T03:17:19.484Z,88.13
2018-07-02T03:18:19.474Z,88.61
2018-07-02T03:19:19.511Z,89.18
2018-07-02T03:20:19.615Z,89.37
2018-07-02T03:21:19.564Z,89.28
2018-07-02T03:22:19.585Z,89.18
2018-07-02T03:23:19.597Z,89.28
2018-07-02T03:24:19.608Z,89.47
2018-07-02T03:25:19.491Z,89.47
2018-07-02T03:26:19.518Z,89.09
2018-07-02T03:27:19.523Z,89.28
2018-07-02T03:28:19.508Z,88.90
2018-07-02T03:29:29.058Z,89.56
2018-07-02T03:31:24.498Z,89.18
2018-07-02T03:32:13.942Z,89.61
2018-07-02T03:33:14.985Z,89.18
2018-07-02T03:34:14.468Z,89.09
2018-07-02T03:35:13.877Z,89.18
2018-07-02T03:36:13.947Z,89.18
2018-07-02T03:37:16.832Z,89.00
2018-07-02T03:38:17.330Z,88.71
2018-07-02T03:39:13.779Z,89.56
2018-07-02T03:40:13.505Z,89.09
2018-07-02T03:41:15.504Z,89.00
2018-07-02T03:42:13.483Z,89.18
2018-07-02T03:43:13.523Z,89.09
2018-07-02T03:44:15.546Z,89.37
2018-07-02T03:45:15.554Z,89.75
2018-07-02T03:46:13.449Z,89.66
2018-07-02T03:47:13.512Z,90.04
2018-07-02T03:48:13.474Z,89.47
2018-07-02T03:49:13.501Z,89.66
2018-07-02T03:50:13.427Z,89.61
2018-07-02T03:51:13.428Z,90.33
2018-07-02T03:52:13.487Z,90.04
2018-07-02T03:53:13.464Z,90.33
2018-07-02T03:54:13.392Z,90.37
2018-07-02T03:55:13.410Z,90.47
2018-07-02T03:56:13.414Z,90.37
2018-07-02T03:57:13.392Z,90.56
2018-07-02T03:58:13.494Z,89.51
2018-07-02T03:59:13.455Z,89.23
2018-07-02T04:00:13.408Z,89.04
2018-07-02T04:01:13.393Z,89.51
2018-07-02T04:02:13.434Z,89.51
2018-07-02T04:03:13.410Z,90.28
2018-07-02T04:04:13.400Z,90.28
2018-07-02T04:05:13.370Z,89.80
2018-07-02T04:06:13.415Z,89.89
2018-07-02T04:07:13.433Z,89.80
2018-07-02T04:08:13.365Z,89.70
2018-07-02T04:09:14.955Z,89.65
2018-07-02T04:10:13.377Z,89.75
2018-07-02T04:11:13.438Z,89.08
2018-07-02T04:12:13.434Z,88.51
2018-07-02T04:13:13.402Z,89.37
2018-07-02T04:14:13.463Z,89.65
2018-07-02T04:15:13.965Z,89.08
2018-07-02T04:16:14.944Z,89.27
2018-07-02T04:17:13.365Z,89.65
2018-07-02T04:18:13.395Z,89.18
2018-07-02T04:19:13.336Z,89.37
2018-07-02T04:20:13.388Z,89.75
2018-07-02T04:21:13.328Z,89.18
2018-07-02T04:22:13.338Z,89.08
2018-07-02T04:23:13.395Z,89.27
2018-07-02T04:24:13.380Z,89.79
2018-07-02T04:25:13.352Z,89.61
2018-07-02T04:26:13.351Z,89.32
2018-07-02T04:27:13.386Z,89.89
2018-07-02T04:28:13.354Z,89.89
2018-07-02T04:29:13.311Z,89.98
2018-07-02T04:30:13.391Z,89.70
2018-07-02T04:31:13.337Z,89.03
2018-07-02T04:32:13.324Z,89.32
2018-07-02T04:33:13.373Z,89.22
2018-07-02T04:34:13.400Z,88.93
2018-07-02T04:35:13.332Z,88.84
2018-07-02T04:36:13.330Z,88.46
2018-07-02T04:37:13.337Z,88.22
2018-07-02T04:38:13.319Z,88.03
2018-07-02T04:39:13.333Z,88.12
2018-07-02T04:40:13.332Z,89.46
2018-07-02T04:41:13.324Z,90.70
2018-07-02T04:42:13.312Z,90.03
2018-07-02T04:43:13.289Z,89.94
2018-07-02T04:44:13.336Z,90.50
2018-07-02T04:45:13.324Z,90.70
2018-07-02T04:46:13.312Z,90.60
2018-07-02T04:47:13.296Z,90.89
2018-07-02T04:48:13.322Z,90.98
2018-07-02T04:49:13.316Z,91.27
2018-07-02T04:50:13.336Z,91.36
2018-07-02T04:51:13.319Z,91.84
2018-07-02T04:52:13.326Z,91.74
2018-07-02T04:53:13.297Z,91.36
2018-07-02T04:54:13.306Z,91.84
2018-07-02T04:55:13.310Z,91.08
2018-07-02T04:56:13.295Z,90.08
2018-07-02T04:57:13.300Z,90.45
2018-07-02T04:58:13.317Z,91.31
2018-07-02T04:59:13.401Z,91.22
2018-07-02T05:00:13.316Z,90.36
2018-07-02T05:01:13.319Z,90.08
2018-07-02T05:02:13.344Z,89.98
2018-07-02T05:03:13.322Z,89.12
2018-07-02T05:04:13.315Z,88.74
2018-07-02T05:05:13.381Z,88.17
2018-07-02T05:06:13.312Z,88.12
2018-07-02T05:07:13.325Z,87.07
2018-07-02T05:08:13.337Z,86.49
2018-07-02T05:09:13.324Z,85.93
2018-07-02T05:10:13.300Z,85.64
2018-07-02T05:11:13.317Z,85.73
2018-07-02T05:12:13.322Z,84.88
2018-07-02T05:13:13.313Z,85.45
2018-07-02T05:14:13.345Z,83.83
2018-07-02T05:15:13.402Z,82.68
2018-07-02T05:16:13.281Z,81.86
2018-07-02T05:17:13.295Z,81.58
2018-07-02T05:18:13.319Z,79.86
2018-07-02T05:19:13.603Z,78.52
2018-07-02T05:20:13.512Z,78.62
2018-07-02T05:21:13.379Z,78.28
2018-07-02T05:22:17.908Z,77.99
2018-07-02T05:23:13.360Z,78.75
2018-07-02T05:24:14.598Z,77.99
2018-07-02T05:25:13.277Z,77.61
2018-07-02T05:26:13.292Z,77.80
2018-07-02T05:27:13.273Z,77.51
2018-07-02T05:28:13.309Z,78.13
2018-07-02T05:29:13.337Z,78.51
2018-07-02T05:30:13.286Z,78.41
2018-07-02T05:31:13.279Z,78.03
2018-07-02T05:32:13.287Z,78.41
2018-07-02T05:33:13.270Z,78.13
2018-07-02T05:34:13.279Z,77.87
2018-07-02T05:35:13.243Z,76.98
2018-07-02T05:36:13.259Z,77.21
2018-07-02T05:37:13.295Z,77.01
2018-07-02T05:38:13.264Z,77.21
2018-07-02T05:39:13.282Z,76.92
2018-07-02T05:40:13.264Z,77.40
2018-07-02T05:41:13.277Z,75.87
2018-07-02T05:42:13.279Z,76.25
2018-07-02T05:43:13.275Z,75.49
2018-07-02T05:44:13.268Z,75.14
2018-07-02T05:45:13.265Z,75.43
2018-07-02T05:46:13.263Z,74.48
2018-07-02T05:47:13.250Z,73.65
2018-07-02T05:48:13.321Z,73.08
2018-07-02T05:49:13.265Z,71.64
2018-07-02T05:50:13.276Z,71.16
2018-07-02T05:51:13.280Z,70.40
2018-07-02T05:52:13.302Z,69.76
2018-07-02T05:53:13.284Z,69.00
2018-07-02T05:54:13.252Z,69.19
2018-07-02T05:55:13.309Z,68.42
2018-07-02T05:56:13.272Z,67.60
2018-07-02T05:57:13.267Z,67.11
2018-07-02T05:58:13.304Z,67.60
2018-07-02T05:59:13.360Z,68.46
2018-07-02T06:00:13.371Z,68.17
2018-07-02T06:01:13.295Z,68.46
2018-07-02T06:02:13.306Z,67.60
2018-07-02T06:03:13.266Z,68.17
2018-07-02T06:04:13.292Z,68.55
2018-07-02T06:05:13.270Z,68.55
2018-07-02T06:06:13.282Z,67.88
2018-07-02T06:07:13.295Z,67.98
2018-07-02T06:08:13.305Z,67.25
2018-07-02T06:09:13.399Z,67.15
2018-07-02T06:10:13.294Z,66.64
2018-07-02T06:11:13.286Z,66.35
2018-07-02T06:12:13.304Z,65.78
2018-07-02T06:13:13.325Z,66.58
2018-07-02T06:14:13.273Z,66.67
2018-07-02T06:15:13.285Z,65.71
2018-07-02T06:16:13.328Z,65.81
2018-07-02T06:17:13.309Z,65.81
2018-07-02T06:18:13.280Z,65.14
2018-07-02T06:19:13.316Z,65.26
2018-07-02T06:20:13.303Z,64.89
2018-07-02T06:21:13.334Z,65.55
2018-07-02T06:22:13.327Z,64.50
2018-07-02T06:23:13.306Z,64.43
2018-07-02T06:24:13.294Z,62.90
2018-07-02T06:25:13.302Z,61.08
2018-07-02T06:26:13.302Z,60.70
2018-07-02T06:27:13.326Z,60.89
2018-07-02T06:28:13.313Z,61.49
2018-07-02T06:29:13.330Z,60.21
2018-07-02T06:30:13.329Z,59.09
2018-07-02T06:31:13.349Z,56.81
2018-07-02T06:32:13.347Z,55.62
2018-07-02T06:33:13.347Z,52.97
2018-07-02T06:34:13.318Z,51.00
2018-07-02T06:35:13.346Z,49.39
2018-07-02T06:36:13.349Z,47.96
2018-07-02T06:37:13.351Z,46.37
2018-07-02T06:38:13.328Z,44.17
2018-07-02T06:39:13.334Z,43.23
2018-07-02T06:40:13.335Z,42.96
2018-07-02T06:41:13.338Z,41.89
2018-07-02T06:42:13.346Z,41.24
2018-07-02T06:43:13.349Z,41.06
2018-07-02T06:44:13.356Z,40.48
2018-07-02T06:45:13.506Z,40.19
2018-07-02T06:46:13.397Z,41.17
2018-07-02T06:47:13.398Z,40.31
2018-07-02T06:48:13.422Z,39.62
2018-07-02T06:49:13.414Z,39.34
2018-07-02T06:50:13.411Z,39.14
2018-07-02T06:51:13.433Z,39.80
2018-07-02T06:52:13.418Z,40.15
2018-07-02T06:53:13.436Z,40.46
2018-07-02T06:54:13.449Z,40.00
2018-07-02T06:55:13.443Z,40.11
2018-07-02T06:56:13.426Z,39.55
2018-07-02T06:57:13.430Z,38.78
2018-07-02T06:58:13.469Z,37.21
2018-07-02T06:59:13.461Z,37.88
2018-07-02T07:00:13.477Z,38.39
2018-07-02T07:01:13.488Z,38.68
2018-07-02T07:02:13.494Z,36.72
2018-07-02T07:03:13.494Z,37.59
2018-07-02T07:04:13.495Z,38.93
2018-07-02T07:05:13.514Z,39.88
2018-07-02T07:06:13.512Z,38.54
2018-07-02T07:07:13.551Z,38.45
2018-07-02T07:08:13.523Z,39.11
2018-07-02T07:09:13.503Z,39.70
2018-07-02T07:10:13.523Z,39.72
2018-07-02T07:11:13.552Z,39.03
2018-07-02T07:12:13.520Z,38.85
2018-07-02T07:13:13.550Z,38.00
2018-07-02T07:14:13.644Z,37.21
2018-07-02T07:15:13.543Z,36.51
2018-07-02T07:16:13.634Z,36.80
2018-07-02T07:17:13.614Z,37.30
2018-07-02T07:18:13.638Z,36.25
2018-07-02T07:19:14.587Z,36.16
2018-07-02T07:20:13.638Z,37.05
2018-07-02T07:21:13.635Z,36.27
2018-07-02T07:22:13.622Z,36.24
2018-07-02T07:23:13.669Z,35.57
2018-07-02T07:24:13.647Z,35.17
2018-07-02T07:25:13.656Z,34.97
2018-07-02T07:26:15.457Z,35.44
2018-07-02T07:27:13.687Z,35.81
2018-07-02T07:28:13.671Z,36.07
2018-07-02T07:29:13.678Z,35.80
2018-07-02T07:30:13.712Z,36.07
2018-07-02T07:31:13.714Z,36.66
2018-07-02T07:32:13.705Z,37.46
2018-07-02T07:33:13.704Z,36.10
2018-07-02T07:34:13.782Z,35.81
2018-07-02T07:35:13.800Z,36.58
2018-07-02T07:36:13.735Z,36.10
2018-07-02T07:37:13.763Z,37.09
2018-07-02T07:38:13.758Z,36.22
2018-07-02T07:39:13.770Z,35.73
2018-07-02T07:40:13.788Z,36.04
2018-07-02T07:41:13.787Z,35.38
2018-07-02T07:42:13.801Z,34.31
2018-07-02T07:43:13.776Z,33.64
2018-07-02T07:44:13.842Z,34.55
2018-07-02T07:45:13.797Z,35.50
2018-07-02T07:46:13.830Z,36.18
2018-07-02T07:47:13.847Z,37.04
2018-07-02T07:48:13.818Z,37.52
2018-07-02T07:49:13.831Z,36.76
2018-07-02T07:50:15.530Z,36.74
2018-07-02T07:51:21.334Z,37.48
2018-07-02T07:53:08.705Z,36.98
2018-07-02T07:54:09.166Z,38.23
2018-07-02T07:56:01.681Z,38.81
2018-07-02T07:57:01.413Z,39.39
2018-07-02T07:58:54.861Z,38.62
2018-07-02T07:59:54.768Z,38.71
2018-07-02T08:01:48.911Z,39.39
2018-07-02T08:02:48.859Z,39.70
2018-07-02T08:04:42.814Z,39.11
2018-07-02T08:05:42.893Z,39.66
2018-07-02T08:07:36.712Z,40.36
2018-07-02T08:08:36.976Z,39.87
2018-07-02T08:10:32.433Z,39.97
2018-07-02T08:11:31.463Z,39.99
2018-07-02T08:12:31.551Z,39.59
2018-07-02T08:13:31.477Z,39.97
2018-07-02T08:14:31.276Z,39.69
2018-07-02T08:15:31.430Z,39.87
2018-07-02T08:16:31.200Z,40.47
2018-07-02T08:17:31.183Z,39.32
2018-07-02T08:18:31.283Z,38.74
2018-07-02T08:19:31.297Z,38.54
2018-07-02T08:20:31.223Z,37.85
2018-07-02T08:21:31.216Z,38.21
2018-07-02T08:22:31.230Z,39.18
2018-07-02T08:23:33.077Z,39.57
2018-07-02T08:24:31.346Z,39.95
2018-07-02T08:25:31.277Z,40.44
2018-07-02T08:26:31.286Z,40.17
2018-07-02T08:27:31.323Z,39.69
2018-07-02T08:28:31.320Z,39.11
2018-07-02T08:29:31.385Z,38.43
2018-07-02T08:30:31.306Z,39.01
2018-07-02T08:31:31.363Z,39.11
2018-07-02T08:32:31.472Z,39.70
2018-07-02T08:33:31.321Z,39.41
2018-07-02T08:34:31.387Z,39.69
2018-07-02T08:35:33.085Z,39.69
2018-07-02T08:36:31.379Z,38.99
2018-07-02T08:37:31.384Z,39.16
2018-07-02T08:38:31.378Z,39.84
2018-07-02T08:39:33.041Z,41.11
2018-07-02T08:40:31.543Z,40.65
2018-07-02T08:41:31.534Z,40.36
2018-07-02T08:42:31.459Z,39.49
2018-07-02T08:43:31.520Z,39.29
2018-07-02T08:44:31.483Z,40.07
2018-07-02T08:45:31.495Z,39.11
2018-07-02T08:46:31.504Z,39.39
2018-07-02T08:47:31.524Z,39.90
2018-07-02T08:48:31.499Z,40.19
2018-07-02T08:49:31.543Z,39.86
2018-07-02T08:50:31.561Z,40.24
2018-07-02T08:51:31.555Z,41.33
2018-07-02T08:52:33.744Z,41.03
2018-07-02T08:53:31.539Z,40.28
2018-07-02T08:54:31.617Z,39.32
2018-07-02T08:55:31.591Z,38.76
2018-07-02T08:56:31.664Z,37.88
2018-07-02T08:57:31.586Z,38.18
2018-07-02T08:58:34.534Z,38.37
2018-07-02T08:59:31.692Z,38.37
2018-07-02T09:00:31.651Z,38.85
2018-07-02T09:01:31.765Z,39.45
2018-07-02T09:02:31.674Z,38.87
2018-07-02T09:03:33.511Z,39.74
2018-07-02T09:04:33.686Z,39.12
2018-07-02T09:05:31.707Z,38.74
2018-07-02T09:06:31.719Z,39.29
2018-07-02T09:07:31.738Z,39.78
2018-07-02T09:08:31.736Z,40.26
2018-07-02T09:09:31.832Z,39.99
2018-07-02T09:10:31.740Z,39.29
2018-07-02T09:11:31.757Z,40.26
2018-07-02T09:12:31.832Z,40.17
2018-07-02T09:13:31.868Z,40.07
2018-07-02T09:14:31.792Z,39.97
2018-07-02T09:15:31.798Z,39.99
2018-07-02T09:16:31.822Z,40.09
2018-07-02T09:17:31.829Z,40.03
2018-07-02T09:18:31.825Z,38.31
2018-07-02T09:19:31.810Z,39.06
2018-07-02T09:20:31.863Z,37.81
2018-07-02T09:21:31.856Z,37.48
2018-07-02T09:22:31.860Z,38.74
2018-07-02T09:23:31.845Z,38.83
2018-07-02T09:24:31.911Z,39.90
2018-07-02T09:25:33.588Z,39.53
2018-07-02T09:26:31.918Z,38.66
2018-07-02T09:27:31.907Z,38.39
2018-07-02T09:28:31.919Z,38.48
2018-07-02T09:29:31.898Z,38.37
2018-07-02T09:30:31.897Z,38.56
2018-07-02T09:31:31.943Z,38.78
2018-07-02T09:32:31.924Z,38.64
2018-07-02T09:33:31.920Z,39.41
2018-07-02T09:34:31.946Z,39.82
2018-07-02T09:35:31.937Z,39.72
2018-07-02T09:36:31.946Z,39.14
2018-07-02T09:37:31.952Z,39.03
2018-07-02T09:38:31.957Z,38.14
2018-07-02T09:39:31.967Z,39.20
2018-07-02T09:40:31.973Z,39.39
2018-07-02T09:41:31.987Z,39.41
2018-07-02T09:42:31.995Z,38.46
2018-07-02T09:43:32.018Z,39.55
2018-07-02T09:44:32.004Z,37.90
2018-07-02T09:45:32.026Z,36.65
2018-07-02T09:46:32.051Z,36.16
2018-07-02T09:47:32.038Z,36.16
2018-07-02T09:48:32.061Z,36.94
2018-07-02T09:49:32.086Z,37.12
2018-07-02T09:50:32.074Z,36.72
2018-07-02T09:51:32.066Z,35.76
2018-07-02T09:52:32.102Z,35.28
2018-07-02T09:53:32.106Z,35.68
2018-07-02T09:54:32.112Z,36.66
2018-07-02T09:55:32.085Z,36.30
2018-07-02T09:56:32.141Z,35.31
2018-07-02T09:57:32.115Z,36.28
2018-07-02T09:58:32.155Z,35.81
2018-07-02T09:59:32.112Z,34.36
2018-07-02T10:00:32.151Z,34.17
2018-07-02T10:01:32.161Z,34.17
2018-07-02T10:02:32.169Z,33.39
2018-07-02T10:03:32.197Z,34.63
2018-07-02T10:04:32.182Z,34.17
2018-07-02T10:05:32.183Z,35.33
2018-07-02T10:06:32.206Z,34.57
2018-07-02T10:07:32.202Z,34.28
2018-07-02T10:08:32.180Z,34.19
2018-07-02T10:09:34.035Z,33.41
2018-07-02T10:10:34.067Z,34.67
2018-07-02T10:11:35.064Z,32.91
2018-07-02T10:12:32.301Z,34.55
2018-07-02T10:13:32.457Z,34.45
2018-07-02T10:14:32.306Z,34.36
2018-07-02T10:15:32.253Z,33.49
2018-07-02T10:16:32.260Z,33.37
2018-07-02T10:17:32.281Z,34.15
2018-07-02T10:18:32.248Z,34.71
2018-07-02T10:19:32.324Z,35.88
2018-07-02T10:20:32.342Z,35.50
2018-07-02T10:21:32.285Z,35.12
2018-07-02T10:22:32.276Z,34.33
2018-07-02T10:23:37.332Z,34.58
2018-07-02T10:24:32.298Z,35.76
2018-07-02T10:25:32.328Z,35.78
2018-07-02T10:26:32.328Z,35.12
2018-07-02T10:27:32.318Z,34.75
2018-07-02T10:28:32.359Z,33.20
2018-07-02T10:29:32.354Z,33.49
2018-07-02T10:30:32.368Z,33.78
2018-07-02T10:31:32.344Z,33.89
2018-07-02T10:32:32.375Z,33.59
2018-07-02T10:33:32.376Z,32.91
2018-07-02T10:34:32.364Z,33.89
2018-07-02T10:35:32.404Z,34.57
2018-07-02T10:36:32.423Z,34.28
2018-07-02T10:37:32.425Z,33.22
2018-07-02T10:38:32.420Z,33.51
2018-07-02T10:39:32.435Z,34.28
2018-07-02T10:40:32.407Z,33.72
2018-07-02T10:41:32.428Z,32.94
2018-07-02T10:42:32.466Z,33.14
2018-07-02T10:43:32.436Z,32.75
2018-07-02T10:44:32.546Z,32.75
2018-07-02T10:45:32.440Z,32.46
2018-07-02T10:46:32.475Z,33.22
2018-07-02T10:47:32.473Z,33.60
2018-07-02T10:48:32.489Z,33.31
2018-07-02T10:49:32.469Z,33.52
2018-07-02T10:50:32.505Z,33.22
2018-07-02T10:51:33.008Z,33.80
2018-07-02T10:52:34.076Z,34.47
2018-07-02T10:53:32.503Z,34.67
2018-07-02T10:54:32.531Z,33.60
2018-07-02T10:55:32.607Z,34.59
2018-07-02T10:56:32.558Z,33.89
2018-07-02T10:57:34.074Z,33.69
2018-07-02T10:58:32.537Z,34.27
2018-07-02T10:59:32.571Z,34.45
2018-07-02T11:00:32.579Z,34.17
2018-07-02T11:01:32.556Z,34.47
2018-07-02T11:02:32.563Z,34.49
2018-07-02T11:03:32.572Z,33.80
2018-07-02T11:04:32.579Z,35.36
2018-07-02T11:05:32.612Z,34.59
2018-07-02T11:06:32.622Z,33.91
2018-07-02T11:07:34.558Z,33.33
2018-07-02T11:08:32.604Z,32.73
2018-07-02T11:09:32.636Z,32.07
2018-07-02T11:10:32.625Z,32.65
2018-07-02T11:11:32.630Z,32.17
2018-07-02T11:12:32.634Z,32.75
2018-07-02T11:13:32.652Z,33.72
2018-07-02T11:14:32.712Z,33.72
2018-07-02T11:15:32.688Z,33.06
2018-07-02T11:16:32.721Z,33.25
2018-07-02T11:17:32.670Z,32.67
2018-07-02T11:18:32.682Z,32.78
2018-07-02T11:19:32.746Z,32.20
2018-07-02T11:20:32.736Z,32.49
2018-07-02T11:21:32.729Z,32.67
2018-07-02T11:22:32.739Z,32.75
2018-07-02T11:23:32.810Z,33.14
2018-07-02T11:24:32.790Z,33.14
2018-07-02T11:25:32.826Z,33.62
2018-07-02T11:26:32.797Z,34.01
2018-07-02T11:27:32.776Z,33.80
2018-07-02T11:28:32.779Z,34.57
2018-07-02T11:29:32.781Z,34.94
2018-07-02T11:30:32.800Z,34.65
2018-07-02T11:31:32.810Z,34.36
2018-07-02T11:32:32.780Z,34.94
2018-07-02T11:33:32.786Z,34.65
2018-07-02T11:34:32.883Z,33.99
2018-07-02T11:35:32.878Z,34.28
2018-07-02T11:36:32.861Z,34.57
2018-07-02T11:37:32.881Z,33.60
2018-07-02T11:38:32.883Z,34.28
2018-07-02T11:39:32.863Z,34.11
2018-07-02T11:40:32.834Z,34.28
2018-07-02T11:41:32.883Z,33.62
2018-07-02T11:42:32.933Z,33.44
2018-07-02T11:43:32.864Z,32.97
2018-07-02T11:44:32.864Z,33.07
2018-07-02T11:45:32.873Z,31.05
2018-07-02T11:46:32.903Z,29.98
2018-07-02T11:47:32.896Z,30.27
2018-07-02T11:48:32.985Z,30.37
2018-07-02T11:49:33.014Z,31.32
2018-07-02T11:50:32.943Z,31.89
2018-07-02T11:51:32.962Z,32.47
2018-07-02T11:52:32.958Z,32.47
2018-07-02T11:53:32.987Z,32.18
2018-07-02T11:54:33.004Z,32.78
2018-07-02T11:55:32.980Z,32.50
2018-07-02T11:56:33.052Z,32.52
2018-07-02T11:57:33.118Z,30.97
2018-07-02T11:58:33.001Z,30.88
2018-07-02T11:59:33.013Z,30.76
2018-07-02T12:00:33.058Z,31.71
2018-07-02T12:01:33.007Z,31.52
2018-07-02T12:02:33.668Z,31.62
2018-07-02T12:03:33.103Z,32.87
2018-07-02T12:04:33.076Z,32.18
2018-07-02T12:05:33.049Z,32.47
2018-07-02T12:06:33.230Z,32.86
2018-07-02T12:07:33.092Z,32.29
2018-07-02T12:08:33.118Z,31.81
2018-07-02T12:09:33.074Z,31.71
2018-07-02T12:10:33.111Z,31.52
2018-07-02T12:11:33.134Z,31.91
2018-07-02T12:12:33.086Z,32.10
2018-07-02T12:13:34.095Z,32.28
2018-07-02T12:14:33.122Z,32.37
2018-07-02T12:15:33.120Z,32.76
2018-07-02T12:16:33.147Z,32.76
2018-07-02T12:17:33.205Z,32.09
2018-07-02T12:18:33.142Z,31.99
2018-07-02T12:19:33.127Z,31.99
2018-07-02T12:20:33.137Z,32.00
2018-07-02T12:21:33.178Z,32.59
2018-07-02T12:22:33.181Z,32.89
2018-07-02T12:23:33.216Z,30.68
2018-07-02T12:24:33.178Z,30.29
2018-07-02T12:25:33.208Z,30.58
2018-07-02T12:26:33.207Z,29.88
2018-07-02T12:27:33.217Z,29.71
2018-07-02T12:28:33.188Z,29.61
2018-07-02T12:29:33.225Z,30.19
2018-07-02T12:30:33.214Z,30.38
2018-07-02T12:31:33.224Z,30.38
2018-07-02T12:32:33.238Z,30.19
2018-07-02T12:33:33.291Z,29.40
2018-07-02T12:34:33.276Z,29.38
2018-07-02T12:35:33.271Z,30.44
2018-07-02T12:36:33.259Z,30.54
2018-07-02T12:37:33.260Z,31.60
2018-07-02T12:38:33.287Z,32.49
2018-07-02T12:39:33.294Z,31.92
2018-07-02T12:40:33.281Z,30.37
2018-07-02T12:41:33.325Z,29.98
2018-07-02T12:42:33.324Z,29.69
2018-07-02T12:43:33.304Z,29.28
2018-07-02T12:44:33.341Z,29.68
2018-07-02T12:45:33.346Z,29.84
2018-07-02T12:46:33.342Z,29.92
2018-07-02T12:47:33.335Z,30.32
2018-07-02T12:48:33.345Z,30.42
2018-07-02T12:49:33.385Z,29.57
2018-07-02T12:50:33.361Z,29.76
2018-07-02T12:51:33.363Z,30.05
2018-07-02T12:52:33.403Z,29.95
2018-07-02T12:53:33.418Z,30.15
2018-07-02T12:54:33.391Z,30.44
2018-07-02T12:55:33.390Z,30.26
2018-07-02T12:56:33.400Z,29.87
2018-07-02T12:57:33.401Z,30.08
2018-07-02T12:58:33.415Z,29.22
2018-07-02T12:59:33.419Z,29.40